Datum - Zeit
Temperatur 2mTemperatur 5cmTaupunktFeuchteSolar Wind aus Richtung WindböenLuftdruck (QFF)RegenRegenstärkeTrend
24.07.2024 - 00.00Uhr20.9 °C21.1 °C17 °C78.0 %6.2 km/hSüdwesten13.0 km/h1018.1 hPa0.0 mm0.0 mm/hwechselhaft
24.07.2024 - 00.05Uhr20.9 °C21.1 °C17 °C78.7 %5.9 km/hWest-SW11.2 km/h1018.1 hPa0.0 mm0.0 mm/hwechselhaft
24.07.2024 - 00.10Uhr20.9 °C20.6 °C17 °C78.8 %6.9 km/hWest-SW13.0 km/h1018.1 hPa0.0 mm0.0 mm/hwechselhaft
24.07.2024 - 00.15Uhr20.9 °C20.6 °C17 °C79.0 %4.9 km/hWest-SW9.7 km/h1018.1 hPa0.0 mm0.0 mm/hwechselhaft
24.07.2024 - 00.20Uhr20.8 °C20.6 °C17 °C79.3 %5.3 km/hWest-SW7.9 km/h1018.2 hPa0.0 mm0.0 mm/hwechselhaft
24.07.2024 - 00.25Uhr20.8 °C20.6 °C17 °C80.0 %5.3 km/hWest-SW9.7 km/h1018.2 hPa0.0 mm0.0 mm/hwechselhaft
24.07.2024 - 00.30Uhr20.7 °C20.6 °C17 °C80.3 %9.1 km/hWesten16.2 km/h1018.2 hPa0.0 mm0.0 mm/hwechselhaft
24.07.2024 - 00.35Uhr20.5 °C20.6 °C17 °C80.5 %8.4 km/hWesten13.0 km/h1018.3 hPa0.0 mm0.0 mm/hwechselhaft
24.07.2024 - 00.40Uhr20.4 °C20.0 °C17 °C81.0 %6.2 km/hWesten9.7 km/h1018.3 hPa0.0 mm0.0 mm/hwechselhaft
24.07.2024 - 00.45Uhr20.3 °C20.0 °C17 °C81.4 %5.5 km/hWesten9.7 km/h1018.3 hPa0.0 mm0.0 mm/hwechselhaft
24.07.2024 - 00.50Uhr20.1 °C19.4 °C17 °C82.0 %4.7 km/hWesten9.7 km/h1018.4 hPa0.0 mm0.0 mm/hwechselhaft
24.07.2024 - 00.55Uhr19.9 °C19.4 °C17 °C83.0 %3.4 km/hWesten7.9 km/h1018.5 hPa0.0 mm0.0 mm/hwechselhaft
24.07.2024 - 01.00Uhr19.8 °C19.4 °C17 °C83.3 %3.0 km/hWest-SW7.9 km/h1018.5 hPa0.0 mm0.0 mm/hwechselhaft
24.07.2024 - 01.05Uhr19.7 °C19.4 °C17 °C84.0 %3.1 km/hWest-SW9.7 km/h1018.6 hPa0.0 mm0.0 mm/hwechselhaft
24.07.2024 - 01.10Uhr19.7 °C19.4 °C17 °C84.0 %3.5 km/hWest-SW4.7 km/h1018.6 hPa0.0 mm0.0 mm/hwechselhaft
24.07.2024 - 01.15Uhr19.6 °C19.4 °C17 °C84.9 %2.8 km/hWest-SW6.5 km/h1018.6 hPa0.0 mm0.0 mm/hwechselhaft
24.07.2024 - 01.20Uhr19.6 °C19.4 °C17 °C85.0 %1.1 km/hWest-SW3.2 km/h1018.7 hPa0.0 mm0.0 mm/hwechselhaft
24.07.2024 - 01.25Uhr19.5 °C19.4 °C17 °C85.1 %2.0 km/hSüdwesten4.7 km/h1018.6 hPa0.0 mm0.0 mm/hwechselhaft
24.07.2024 - 01.30Uhr19.4 °C19.4 °C17 °C86.0 %1.7 km/hWesten4.7 km/h1018.6 hPa0.0 mm0.0 mm/hwechselhaft
24.07.2024 - 01.35Uhr19.4 °C19.4 °C17 °C86.0 %0.8 km/hWesten4.7 km/h1018.6 hPa0.0 mm0.0 mm/hwechselhaft
24.07.2024 - 01.40Uhr19.4 °C19.4 °C17 °C86.1 %1.4 km/hWesten4.7 km/h1018.6 hPa0.0 mm0.0 mm/hwechselhaft
24.07.2024 - 01.45Uhr19.3 °C19.4 °C17 °C86.5 %2.1 km/hWesten4.7 km/h1018.6 hPa0.0 mm0.0 mm/hwechselhaft
24.07.2024 - 01.50Uhr19.3 °C19.4 °C17 °C86.8 %0.7 km/hWesten3.2 km/h1018.6 hPa0.0 mm0.0 mm/hwechselhaft
24.07.2024 - 01.55Uhr19.3 °C19.4 °C17 °C87.0 %0.0 km/hWesten0.0 km/h1018.7 hPa0.0 mm0.0 mm/hwechselhaft
24.07.2024 - 02.00Uhr19.3 °C19.4 °C17 °C87.8 %0.0 km/hWesten1.4 km/h1018.7 hPa0.0 mm0.0 mm/hwechselhaft
24.07.2024 - 02.05Uhr19.2 °C19.4 °C17 °C88.0 %0.0 km/hWesten1.4 km/h1018.7 hPa0.0 mm0.0 mm/hwechselhaft
24.07.2024 - 02.10Uhr19.2 °C19.4 °C17 °C87.6 %1.3 km/hWesten4.7 km/h1018.8 hPa0.0 mm0.0 mm/hwechselhaft
24.07.2024 - 02.15Uhr19.1 °C19.4 °C17 °C86.4 %2.7 km/hWesten4.7 km/h1018.7 hPa0.0 mm0.0 mm/hwechselhaft
24.07.2024 - 02.20Uhr19.1 °C19.4 °C17 °C85.2 %1.9 km/hWesten4.7 km/h1018.8 hPa0.0 mm0.0 mm/hwechselhaft
24.07.2024 - 02.25Uhr19.2 °C19.4 °C17 °C85.0 %3.2 km/hWesten7.9 km/h1018.8 hPa0.0 mm0.0 mm/hwechselhaft
24.07.2024 - 02.30Uhr19.2 °C19.4 °C17 °C85.0 %4.0 km/hWesten7.9 km/h1018.8 hPa0.0 mm0.0 mm/hwechselhaft
24.07.2024 - 02.35Uhr19.2 °C19.4 °C17 °C85.0 %2.1 km/hWest-SW7.9 km/h1018.8 hPa0.0 mm0.0 mm/hwechselhaft
24.07.2024 - 02.40Uhr19.2 °C19.4 °C17 °C85.0 %2.8 km/hWest-SW4.7 km/h1018.8 hPa0.0 mm0.0 mm/hwechselhaft
24.07.2024 - 02.45Uhr19.2 °C19.4 °C16 °C84.6 %2.8 km/hWesten6.5 km/h1018.8 hPa0.0 mm0.0 mm/hwechselhaft
24.07.2024 - 02.50Uhr19.1 °C19.4 °C16 °C84.9 %3.9 km/hWesten6.5 km/h1018.8 hPa0.0 mm0.0 mm/hwechselhaft
24.07.2024 - 02.55Uhr19.1 °C18.9 °C16 °C84.5 %3.0 km/hWest-NW6.5 km/h1018.7 hPa0.0 mm0.0 mm/hwechselhaft
24.07.2024 - 03.00Uhr19.0 °C18.9 °C16 °C85.0 %3.4 km/hWesten6.5 km/h1018.7 hPa0.0 mm0.0 mm/hwechselhaft
24.07.2024 - 03.05Uhr18.9 °C18.9 °C16 °C85.0 %3.8 km/hWesten6.5 km/h1018.7 hPa0.0 mm0.0 mm/hwechselhaft
24.07.2024 - 03.10Uhr18.9 °C18.9 °C16 °C85.0 %2.7 km/hWest-SW6.5 km/h1018.6 hPa0.0 mm0.0 mm/hwechselhaft
24.07.2024 - 03.15Uhr18.8 °C18.9 °C16 °C84.3 %4.4 km/hWesten13.0 km/h1018.6 hPa0.0 mm0.0 mm/hwechselhaft
24.07.2024 - 03.20Uhr18.8 °C18.9 °C16 °C83.2 %5.3 km/hWesten9.7 km/h1018.7 hPa0.0 mm0.0 mm/hwechselhaft
24.07.2024 - 03.25Uhr18.8 °C18.9 °C16 °C82.8 %5.5 km/hWesten11.2 km/h1018.6 hPa0.0 mm0.0 mm/hwechselhaft
24.07.2024 - 03.30Uhr18.8 °C18.9 °C16 °C82.0 %7.3 km/hWesten13.0 km/h1018.6 hPa0.0 mm0.0 mm/hwechselhaft
24.07.2024 - 03.35Uhr18.8 °C18.9 °C16 °C82.0 %5.3 km/hWesten9.7 km/h1018.5 hPa0.0 mm0.0 mm/hwechselhaft
24.07.2024 - 03.40Uhr18.7 °C18.9 °C16 °C82.9 %2.4 km/hWesten6.5 km/h1018.5 hPa0.0 mm0.0 mm/hwechselhaft
24.07.2024 - 03.45Uhr18.7 °C18.9 °C16 °C83.4 %0.5 km/hWesten3.2 km/h1018.5 hPa0.0 mm0.0 mm/hwechselhaft
24.07.2024 - 03.50Uhr18.7 °C18.3 °C16 °C84.2 %0.8 km/hWest-SW4.7 km/h1018.5 hPa0.0 mm0.0 mm/hwechselhaft
24.07.2024 - 03.55Uhr18.6 °C18.3 °C16 °C84.8 %0.0 km/hWest-SW0.0 km/h1018.5 hPa0.0 mm0.0 mm/hwechselhaft
24.07.2024 - 04.00Uhr18.6 °C18.3 °C16 °C84.8 %0.0 km/hWest-SW0.0 km/h1018.5 hPa0.0 mm0.0 mm/hwechselhaft
24.07.2024 - 04.05Uhr18.4 °C18.3 °C16 °C84.9 %0.0 km/hWest-SW0.0 km/h1018.5 hPa0.0 mm0.0 mm/hwechselhaft
24.07.2024 - 04.10Uhr18.3 °C18.3 °C16 °C84.2 %0.0 km/hWest-SW0.0 km/h1018.5 hPa0.0 mm0.0 mm/hwechselhaft
24.07.2024 - 04.15Uhr18.3 °C18.3 °C16 °C84.0 %0.0 km/hWest-SW0.0 km/h1018.5 hPa0.0 mm0.0 mm/hwechselhaft
24.07.2024 - 04.20Uhr18.3 °C18.3 °C16 °C84.2 %0.0 km/hWest-SW0.0 km/h1018.5 hPa0.0 mm0.0 mm/hwechselhaft
24.07.2024 - 04.25Uhr18.3 °C18.3 °C16 °C85.0 %0.0 km/hWest-SW0.0 km/h1018.4 hPa0.0 mm0.0 mm/hwechselhaft
24.07.2024 - 04.30Uhr18.3 °C18.3 °C16 °C85.0 %0.0 km/hWest-SW0.0 km/h1018.4 hPa0.0 mm0.0 mm/hwechselhaft
24.07.2024 - 04.35Uhr18.3 °C18.3 °C16 °C85.0 %0.0 km/hWest-SW0.0 km/h1018.3 hPa0.0 mm0.0 mm/hwechselhaft
24.07.2024 - 04.40Uhr18.2 °C18.3 °C16 °C85.0 %0.0 km/hWest-SW0.0 km/h1018.3 hPa0.0 mm0.0 mm/hwechselhaft
24.07.2024 - 04.45Uhr18.2 °C18.3 °C16 °C86.7 %0.0 km/hWest-SW0.0 km/h1018.3 hPa0.0 mm0.0 mm/hwechselhaft
24.07.2024 - 04.50Uhr18.2 °C18.3 °C16 °C86.6 %0.0 km/hWest-SW0.0 km/h1018.4 hPa0.0 mm0.0 mm/hwechselhaft
24.07.2024 - 04.55Uhr18.1 °C18.3 °C16 °C87.0 %0.0 km/hWest-SW0.0 km/h1018.4 hPa0.0 mm0.0 mm/hwechselhaft
24.07.2024 - 05.00Uhr18.1 °C17.8 °C16 °C87.2 %0.0 km/hWest-SW0.0 km/h1018.4 hPa0.0 mm0.0 mm/hwechselhaft
24.07.2024 - 05.05Uhr18.0 °C17.8 °C16 °C88.0 %0.0 km/hWest-SW0.0 km/h1018.4 hPa0.0 mm0.0 mm/hwechselhaft
24.07.2024 - 05.10Uhr17.9 °C17.8 °C16 °C87.7 %0.0 km/hWest-SW0.0 km/h1018.5 hPa0.0 mm0.0 mm/hwechselhaft
24.07.2024 - 05.15Uhr17.8 °C18.3 °C16 °C87.0 %0.0 km/hWest-SW0.0 km/h1018.5 hPa0.0 mm0.0 mm/hwechselhaft
24.07.2024 - 05.20Uhr17.8 °C17.8 °C16 °C88.0 %0.0 km/hWest-SW0.0 km/h1018.4 hPa0.0 mm0.0 mm/hwechselhaft
24.07.2024 - 05.25Uhr17.8 °C17.8 °C16 °C88.7 %0.0 km/hWest-SW0.0 km/h1018.4 hPa0.0 mm0.0 mm/hwechselhaft
24.07.2024 - 05.30Uhr17.8 °C18.3 °C16 °C87.1 %0.0 km/hWest-SW0.0 km/h1018.4 hPa0.0 mm0.0 mm/hwechselhaft